Time;durP1;ratioP1;P1;durP2;ratioP2;P2;SDS_P1;SDS_P2;PMS_P1;PMS_P2;Temp;Humidity;BMP_temperature;BMP_pressure;BME280_temperature;BME280_humidity;BME280_pressure;Samples;Min_cycle;Max_cycle;Signal;HPM_P1;HPM_P2
2023/09/17 00:02:09;;;;;;;5.37;2.70;;;;;;;;;;5030389;28;20482;-57
2023/09/17 00:04:38;;;;;;;3.10;2.70;;;;;;;;;;5030200;28;20494;-57
2023/09/17 00:07:05;;;;;;;3.17;2.40;;;;;;;;;;5029769;28;20520;-57
2023/09/17 00:09:33;;;;;;;5.13;2.70;;;;;;;;;;5034300;28;20470;-57
2023/09/17 00:12:00;;;;;;;2.90;2.30;;;;;;;;;;5034766;28;20466;-57
2023/09/17 00:14:27;;;;;;;4.30;3.10;;;;;;;;;;5040614;28;20515;-56
2023/09/17 00:16:54;;;;;;;5.50;2.60;;;;;;;;;;5036314;28;20516;-57
2023/09/17 00:19:22;;;;;;;6.23;2.70;;;;;;;;;;5034072;28;20901;-58
2023/09/17 00:21:51;;;;;;;3.67;2.60;;;;;;;;;;5033896;28;20478;-57
2023/09/17 00:24:19;;;;;;;3.53;2.40;;;;;;;;;;5034463;28;20463;-57
2023/09/17 00:26:46;;;;;;;3.90;2.40;;;;;;;;;;5034090;28;20499;-57
2023/09/17 00:29:13;;;;;;;4.27;2.60;;;;;;;;;;5033989;28;20442;-57
2023/09/17 00:31:40;;;;;;;2.77;2.13;;;;;;;;;;5034150;28;20489;-58
2023/09/17 00:34:08;;;;;;;3.20;2.40;;;;;;;;;;5034140;28;20489;-57
2023/09/17 00:36:35;;;;;;;3.63;2.47;;;;;;;;;;5033681;28;20459;-57
2023/09/17 00:39:04;;;;;;;3.47;2.50;;;;;;;;;;5032779;28;20632;-58
2023/09/17 00:41:31;;;;;;;4.67;2.80;;;;;;;;;;5033930;28;20454;-57
2023/09/17 00:43:58;;;;;;;4.37;2.80;;;;;;;;;;5033785;28;20867;-57
2023/09/17 00:46:26;;;;;;;4.70;2.43;;;;;;;;;;5033876;28;20504;-57
2023/09/17 00:48:53;;;;;;;4.10;2.87;;;;;;;;;;5033595;28;20508;-58
2023/09/17 00:51:21;;;;;;;2.77;2.13;;;;;;;;;;5034001;28;20532;-58
2023/09/17 00:53:48;;;;;;;4.20;3.10;;;;;;;;;;5033146;28;21007;-58
2023/09/17 00:56:17;;;;;;;3.40;2.57;;;;;;;;;;5027056;28;20469;-57
2023/09/17 00:58:44;;;;;;;6.37;2.47;;;;;;;;;;5033120;28;20450;-57
2023/09/17 01:01:12;;;;;;;3.80;2.60;;;;;;;;;;5026628;28;20446;-57
2023/09/17 01:03:40;;;;;;;3.50;2.10;;;;;;;;;;5032962;28;20998;-57
2023/09/17 01:06:07;;;;;;;4.60;2.50;;;;;;;;;;5033383;28;20527;-60
2023/09/17 01:08:36;;;;;;;3.27;2.30;;;;;;;;;;5033460;28;20449;-57
2023/09/17 01:11:04;;;;;;;3.70;2.50;;;;;;;;;;5033252;28;20454;-57
2023/09/17 01:13:34;;;;;;;3.40;2.47;;;;;;;;;;5033229;28;20501;-57
2023/09/17 01:16:03;;;;;;;3.67;2.80;;;;;;;;;;5032512;28;20936;-57
2023/09/17 01:18:31;;;;;;;3.70;2.40;;;;;;;;;;5028717;28;20454;-57
2023/09/17 01:21:00;;;;;;;3.97;2.60;;;;;;;;;;5032269;28;20552;-57
2023/09/17 01:23:30;;;;;;;6.97;2.93;;;;;;;;;;5032953;28;20446;-57
2023/09/17 01:25:58;;;;;;;9.10;3.30;;;;;;;;;;5033222;28;20446;-57
2023/09/17 01:28:27;;;;;;;3.67;2.50;;;;;;;;;;5032470;28;20461;-58
2023/09/17 01:30:54;;;;;;;4.23;2.90;;;;;;;;;;5032522;28;20454;-57
2023/09/17 01:33:22;;;;;;;4.63;2.90;;;;;;;;;;5033426;28;20450;-57
2023/09/17 01:35:54;;;;;;;2.90;2.30;;;;;;;;;;5032978;28;20474;-57
2023/09/17 01:38:23;;;;;;;4.00;3.10;;;;;;;;;;5032275;28;20492;-57
2023/09/17 01:40:51;;;;;;;4.67;3.30;;;;;;;;;;5032746;28;20509;-57
2023/09/17 01:43:20;;;;;;;2.93;2.40;;;;;;;;;;5032670;28;20505;-57
2023/09/17 01:45:49;;;;;;;3.77;2.83;;;;;;;;;;5032055;28;20572;-57
2023/09/17 01:48:17;;;;;;;6.80;3.00;;;;;;;;;;5032157;28;20451;-57
2023/09/17 01:50:47;;;;;;;3.10;2.03;;;;;;;;;;5032716;28;20470;-57
2023/09/17 01:53:15;;;;;;;3.80;2.70;;;;;;;;;;5026748;28;20442;-58
2023/09/17 01:55:42;;;;;;;3.77;2.63;;;;;;;;;;5031801;28;20476;-57
2023/09/17 01:58:10;;;;;;;3.00;2.00;;;;;;;;;;5032257;28;20499;-58
2023/09/17 02:00:38;;;;;;;3.80;2.40;;;;;;;;;;5032280;28;20510;-58
2023/09/17 02:03:08;;;;;;;4.07;2.20;;;;;;;;;;5032276;28;20454;-57
2023/09/17 02:05:35;;;;;;;5.57;2.23;;;;;;;;;;5032345;28;20473;-57
2023/09/17 02:08:03;;;;;;;3.40;2.40;;;;;;;;;;5032029;28;20489;-58
2023/09/17 02:10:31;;;;;;;3.10;2.10;;;;;;;;;;5032754;28;20450;-58
2023/09/17 02:12:58;;;;;;;3.50;2.40;;;;;;;;;;5032262;28;20478;-57
2023/09/17 02:15:25;;;;;;;2.70;2.33;;;;;;;;;;5032319;28;20466;-57
2023/09/17 02:17:52;;;;;;;3.10;2.30;;;;;;;;;;5032102;28;20853;-57
2023/09/17 02:20:21;;;;;;;4.87;2.30;;;;;;;;;;5032323;28;20482;-57
2023/09/17 02:22:48;;;;;;;3.77;2.37;;;;;;;;;;5031794;28;20455;-57
2023/09/17 02:25:16;;;;;;;3.73;2.50;;;;;;;;;;5032217;28;20466;-57
2023/09/17 02:27:43;;;;;;;3.87;2.70;;;;;;;;;;5031790;28;20446;-58
2023/09/17 02:30:11;;;;;;;3.23;2.30;;;;;;;;;;5032067;28;20522;-57
2023/09/17 02:32:38;;;;;;;3.80;2.70;;;;;;;;;;5030646;28;20450;-57
2023/09/17 02:35:06;;;;;;;4.80;2.70;;;;;;;;;;5031685;28;20884;-58
2023/09/17 02:37:35;;;;;;;3.77;2.87;;;;;;;;;;5031449;28;20446;-58
2023/09/17 02:40:09;;;;;;;3.93;2.50;;;;;;;;;;5032037;28;20513;-57
2023/09/17 02:42:36;;;;;;;3.87;2.23;;;;;;;;;;5031885;28;20451;-57
2023/09/17 02:45:04;;;;;;;6.40;2.70;;;;;;;;;;5031082;28;20561;-58
2023/09/17 02:47:33;;;;;;;6.20;2.30;;;;;;;;;;5030852;28;20457;-57
2023/09/17 02:50:00;;;;;;;5.73;2.73;;;;;;;;;;5030959;28;20530;-58
2023/09/17 02:52:27;;;;;;;3.70;2.47;;;;;;;;;;5031901;28;20496;-57
2023/09/17 02:54:57;;;;;;;3.20;2.27;;;;;;;;;;5031099;28;20462;-58
2023/09/17 02:57:24;;;;;;;3.23;2.60;;;;;;;;;;5030786;28;20511;-58
2023/09/17 02:59:51;;;;;;;3.93;2.67;;;;;;;;;;5031296;28;20540;-57
2023/09/17 03:02:19;;;;;;;4.33;2.67;;;;;;;;;;5031282;28;20529;-58
2023/09/17 03:04:47;;;;;;;3.17;2.50;;;;;;;;;;5032391;28;20466;-59
2023/09/17 03:07:18;;;;;;;5.83;3.10;;;;;;;;;;5033938;28;20447;-57
2023/09/17 03:09:45;;;;;;;3.80;2.50;;;;;;;;;;5031684;28;20442;-57
2023/09/17 03:12:14;;;;;;;4.10;2.90;;;;;;;;;;5031078;28;20508;-57
2023/09/17 03:14:41;;;;;;;3.97;3.47;;;;;;;;;;5031070;28;20486;-58
2023/09/17 03:17:09;;;;;;;4.63;2.97;;;;;;;;;;5030974;28;20814;-57
2023/09/17 03:19:37;;;;;;;3.47;2.67;;;;;;;;;;5030802;28;20973;-57
2023/09/17 03:22:04;;;;;;;3.20;2.80;;;;;;;;;;5030817;28;20541;-57
2023/09/17 03:24:31;;;;;;;3.43;2.00;;;;;;;;;;5030596;28;20840;-58
2023/09/17 03:26:59;;;;;;;3.23;2.30;;;;;;;;;;5030261;28;20511;-57
2023/09/17 03:29:27;;;;;;;5.33;2.50;;;;;;;;;;5031136;28;20482;-58
2023/09/17 03:31:54;;;;;;;3.67;2.10;;;;;;;;;;5031968;28;21067;-57
2023/09/17 03:34:22;;;;;;;4.27;2.40;;;;;;;;;;5030816;28;20520;-57
2023/09/17 03:36:49;;;;;;;3.97;2.77;;;;;;;;;;5030438;28;20492;-57
2023/09/17 03:39:17;;;;;;;3.70;2.57;;;;;;;;;;5029967;28;20821;-57
2023/09/17 03:41:44;;;;;;;4.90;2.50;;;;;;;;;;5030709;28;20831;-57
2023/09/17 03:44:11;;;;;;;3.10;2.50;;;;;;;;;;5045605;22;20505;-56
2023/09/17 03:46:40;;;;;;;3.87;3.30;;;;;;;;;;5049375;28;20962;-59
2023/09/17 03:49:08;;;;;;;2.83;2.30;;;;;;;;;;5049438;28;20901;-57
2023/09/17 03:51:36;;;;;;;3.80;2.50;;;;;;;;;;5049819;28;20816;-58
2023/09/17 03:54:04;;;;;;;6.27;3.10;;;;;;;;;;5048782;28;20437;-56
2023/09/17 03:56:31;;;;;;;4.13;2.63;;;;;;;;;;5049835;28;20892;-59
2023/09/17 03:58:58;;;;;;;4.43;2.70;;;;;;;;;;5048680;28;20527;-56
2023/09/17 04:01:25;;;;;;;5.40;2.63;;;;;;;;;;5049289;28;20571;-56
2023/09/17 04:03:54;;;;;;;3.70;2.37;;;;;;;;;;5048776;28;20448;-57
2023/09/17 04:06:21;;;;;;;3.30;2.53;;;;;;;;;;5049929;28;20540;-56
2023/09/17 04:08:49;;;;;;;3.47;2.80;;;;;;;;;;5049796;28;20465;-56
2023/09/17 04:11:17;;;;;;;5.50;2.30;;;;;;;;;;5049945;28;20468;-57
2023/09/17 04:13:45;;;;;;;3.37;2.23;;;;;;;;;;5049866;28;20836;-56
2023/09/17 04:16:12;;;;;;;3.67;2.30;;;;;;;;;;5049876;28;20488;-58
2023/09/17 04:18:39;;;;;;;3.30;2.53;;;;;;;;;;5049923;28;20914;-58
2023/09/17 04:21:08;;;;;;;3.53;2.60;;;;;;;;;;5049600;28;21386;-57
2023/09/17 04:23:36;;;;;;;3.10;2.30;;;;;;;;;;5049641;28;20936;-56
2023/09/17 04:26:04;;;;;;;6.37;3.20;;;;;;;;;;5049934;28;20562;-56
2023/09/17 04:28:31;;;;;;;4.07;2.70;;;;;;;;;;5049534;28;20963;-57
2023/09/17 04:30:58;;;;;;;3.60;2.43;;;;;;;;;;5049852;28;20449;-57
2023/09/17 04:33:26;;;;;;;4.43;2.40;;;;;;;;;;5049904;28;20453;-56
2023/09/17 04:35:57;;;;;;;3.23;2.43;;;;;;;;;;5049699;28;20911;-56
2023/09/17 04:38:28;;;;;;;3.23;2.40;;;;;;;;;;5049369;28;21015;-56
2023/09/17 04:40:55;;;;;;;3.30;2.30;;;;;;;;;;5049312;28;20487;-58
2023/09/17 04:43:23;;;;;;;3.30;2.20;;;;;;;;;;5049949;28;20450;-57
2023/09/17 04:45:50;;;;;;;3.40;3.07;;;;;;;;;;5049518;28;20553;-56
2023/09/17 04:48:17;;;;;;;5.00;2.40;;;;;;;;;;5049395;28;20943;-56
2023/09/17 04:50:45;;;;;;;3.17;2.30;;;;;;;;;;5049611;28;20480;-57
2023/09/17 04:53:12;;;;;;;5.07;2.03;;;;;;;;;;5049848;28;20441;-56
2023/09/17 04:55:41;;;;;;;3.47;2.87;;;;;;;;;;5052161;28;20511;-58
2023/09/17 04:58:08;;;;;;;4.07;2.23;;;;;;;;;;5053201;28;20526;-56
2023/09/17 05:00:36;;;;;;;3.30;2.40;;;;;;;;;;5053154;28;20916;-56
2023/09/17 05:03:04;;;;;;;3.07;2.30;;;;;;;;;;5053190;28;20831;-57
2023/09/17 05:05:32;;;;;;;2.90;2.03;;;;;;;;;;5052900;28;20841;-57
2023/09/17 05:08:00;;;;;;;3.00;2.30;;;;;;;;;;5052717;28;20473;-57
2023/09/17 05:10:27;;;;;;;3.13;2.30;;;;;;;;;;5053204;28;20445;-57
2023/09/17 05:12:57;;;;;;;5.33;2.40;;;;;;;;;;5053119;28;20464;-58
2023/09/17 05:15:24;;;;;;;3.57;2.50;;;;;;;;;;5052550;28;20992;-57
2023/09/17 05:17:51;;;;;;;4.23;2.80;;;;;;;;;;5052658;28;20448;-56
2023/09/17 05:20:21;;;;;;;4.27;2.47;;;;;;;;;;5052854;28;20524;-59
2023/09/17 05:22:48;;;;;;;3.60;2.03;;;;;;;;;;5052607;28;20827;-56
2023/09/17 05:25:16;;;;;;;4.40;2.20;;;;;;;;;;5052633;28;20467;-58
2023/09/17 05:27:43;;;;;;;4.43;2.90;;;;;;;;;;5052308;28;20476;-58
2023/09/17 05:30:13;;;;;;;3.23;2.53;;;;;;;;;;5052603;28;21027;-56
2023/09/17 05:32:40;;;;;;;5.17;3.40;;;;;;;;;;5052383;28;20449;-56
2023/09/17 05:35:08;;;;;;;3.70;2.80;;;;;;;;;;5053061;28;20725;-57
2023/09/17 05:37:35;;;;;;;4.33;3.37;;;;;;;;;;5052197;28;20442;-58
2023/09/17 05:40:03;;;;;;;3.70;2.70;;;;;;;;;;5052506;28;20543;-56
2023/09/17 05:42:31;;;;;;;3.60;2.63;;;;;;;;;;5052329;28;20491;-57
2023/09/17 05:44:58;;;;;;;3.73;3.30;;;;;;;;;;5051941;28;21010;-58
2023/09/17 05:47:27;;;;;;;8.07;3.17;;;;;;;;;;5052194;28;20531;-56
2023/09/17 05:49:55;;;;;;;2.80;2.13;;;;;;;;;;5052022;28;20473;-58
2023/09/17 05:52:22;;;;;;;8.83;3.07;;;;;;;;;;5052249;28;20445;-56
2023/09/17 05:54:50;;;;;;;3.97;2.70;;;;;;;;;;5052164;28;20568;-56
2023/09/17 05:57:17;;;;;;;6.90;2.73;;;;;;;;;;5052151;28;20469;-57
2023/09/17 05:59:45;;;;;;;4.00;2.70;;;;;;;;;;5052239;28;20453;-56
2023/09/17 06:02:12;;;;;;;4.50;3.80;;;;;;;;;;5052167;28;20606;-56
2023/09/17 06:04:41;;;;;;;5.33;3.67;;;;;;;;;;5051784;28;20495;-56
2023/09/17 06:07:08;;;;;;;13.50;3.40;;;;;;;;;;5051373;28;20877;-57
2023/09/17 06:09:36;;;;;;;6.30;2.40;;;;;;;;;;5051572;28;20450;-57
2023/09/17 06:12:03;;;;;;;5.83;2.53;;;;;;;;;;5050745;28;20472;-58
2023/09/17 06:14:30;;;;;;;4.33;2.73;;;;;;;;;;5052252;28;20465;-58
2023/09/17 06:16:58;;;;;;;5.00;3.23;;;;;;;;;;5051516;28;20449;-59
2023/09/17 06:19:25;;;;;;;4.73;3.10;;;;;;;;;;5051777;28;20491;-56
2023/09/17 06:21:54;;;;;;;5.70;2.90;;;;;;;;;;5051729;28;20481;-58
2023/09/17 06:24:21;;;;;;;5.20;3.57;;;;;;;;;;5050790;28;20468;-58
2023/09/17 06:26:48;;;;;;;4.67;3.70;;;;;;;;;;5050955;28;20437;-57
2023/09/17 06:29:16;;;;;;;4.27;3.20;;;;;;;;;;5051005;28;20998;-59
2023/09/17 06:31:43;;;;;;;5.93;3.33;;;;;;;;;;5051373;28;20472;-58
2023/09/17 06:34:10;;;;;;;5.60;2.97;;;;;;;;;;5048547;28;20487;-57
2023/09/17 06:36:38;;;;;;;3.77;2.80;;;;;;;;;;5051062;28;20725;-58
2023/09/17 06:39:07;;;;;;;12.43;3.40;;;;;;;;;;5050063;28;20523;-58
2023/09/17 06:41:35;;;;;;;3.60;3.17;;;;;;;;;;5050603;28;20477;-59
2023/09/17 06:44:02;;;;;;;6.13;3.27;;;;;;;;;;5050036;28;20835;-58
2023/09/17 06:46:29;;;;;;;3.90;2.80;;;;;;;;;;5050373;28;20485;-58
2023/09/17 06:48:56;;;;;;;4.63;2.83;;;;;;;;;;5050708;28;20468;-58
2023/09/17 06:51:24;;;;;;;4.10;3.03;;;;;;;;;;5050659;28;20543;-57
2023/09/17 06:53:51;;;;;;;3.23;2.40;;;;;;;;;;5050299;28;20911;-59
2023/09/17 06:56:23;;;;;;;3.33;2.80;;;;;;;;;;5050635;28;20467;-58
2023/09/17 06:58:50;;;;;;;3.80;3.37;;;;;;;;;;5047910;28;20441;-56
2023/09/17 07:01:19;;;;;;;4.40;3.43;;;;;;;;;;5050662;28;20558;-58
2023/09/17 07:03:46;;;;;;;4.10;3.40;;;;;;;;;;5048060;28;20532;-59
2023/09/17 07:06:14;;;;;;;4.93;3.27;;;;;;;;;;5050119;28;20610;-59
2023/09/17 07:08:41;;;;;;;4.50;4.00;;;;;;;;;;5050526;28;20465;-57
2023/09/17 07:11:08;;;;;;;4.37;3.53;;;;;;;;;;5050114;28;20944;-58
2023/09/17 07:13:38;;;;;;;6.13;3.90;;;;;;;;;;5050371;28;20448;-59
2023/09/17 07:16:05;;;;;;;5.30;3.90;;;;;;;;;;5049818;28;20461;-58
2023/09/17 07:18:34;;;;;;;4.50;3.50;;;;;;;;;;5049475;28;20931;-57
2023/09/17 07:21:01;;;;;;;3.97;3.00;;;;;;;;;;5049980;28;20490;-59
2023/09/17 07:23:29;;;;;;;7.90;3.70;;;;;;;;;;5050026;28;20526;-58
2023/09/17 07:25:57;;;;;;;6.23;3.30;;;;;;;;;;5050190;28;20462;-58
2023/09/17 07:28:24;;;;;;;4.10;3.70;;;;;;;;;;5049700;28;21030;-57
2023/09/17 07:30:56;;;;;;;5.07;3.07;;;;;;;;;;5049038;28;20534;-59
2023/09/17 07:33:23;;;;;;;3.93;3.53;;;;;;;;;;5048412;28;20540;-59
2023/09/17 07:35:50;;;;;;;3.90;3.07;;;;;;;;;;5048430;28;20489;-59
2023/09/17 07:38:17;;;;;;;3.80;3.00;;;;;;;;;;5049200;28;20515;-58
2023/09/17 07:40:45;;;;;;;5.30;3.50;;;;;;;;;;5047195;28;20465;-58
2023/09/17 07:43:12;;;;;;;3.77;2.70;;;;;;;;;;5048091;28;20488;-59
2023/09/17 07:45:40;;;;;;;5.40;3.17;;;;;;;;;;5049439;28;20554;-56
2023/09/17 07:48:08;;;;;;;3.57;3.07;;;;;;;;;;5049600;28;21083;-58
2023/09/17 07:50:36;;;;;;;4.87;3.40;;;;;;;;;;5049822;28;21010;-57
2023/09/17 07:53:04;;;;;;;3.77;3.37;;;;;;;;;;5049592;28;20789;-59
2023/09/17 07:55:31;;;;;;;4.37;3.83;;;;;;;;;;5049829;28;20457;-58
2023/09/17 07:57:58;;;;;;;4.87;3.70;;;;;;;;;;5049790;28;20531;-57
2023/09/17 08:00:25;;;;;;;3.83;3.03;;;;;;;;;;5046920;28;20465;-58
2023/09/17 08:02:53;;;;;;;4.40;3.53;;;;;;;;;;5049823;28;20508;-59
2023/09/17 08:05:24;;;;;;;4.33;3.20;;;;;;;;;;5049461;28;20535;-59
2023/09/17 08:07:52;;;;;;;4.07;3.17;;;;;;;;;;5049402;28;20942;-58
2023/09/17 08:10:19;;;;;;;4.00;3.10;;;;;;;;;;5049645;28;20534;-57
2023/09/17 08:12:46;;;;;;;4.17;3.10;;;;;;;;;;5049361;28;20433;-58
2023/09/17 08:15:14;;;;;;;4.63;3.10;;;;;;;;;;5049916;28;21069;-58
2023/09/17 08:17:43;;;;;;;4.00;3.00;;;;;;;;;;5049899;28;20449;-58
2023/09/17 08:20:11;;;;;;;5.87;3.73;;;;;;;;;;5049971;28;20456;-59
2023/09/17 08:22:40;;;;;;;3.40;3.10;;;;;;;;;;5049659;28;21052;-59
2023/09/17 08:25:09;;;;;;;3.57;2.63;;;;;;;;;;5049629;28;20465;-58
2023/09/17 08:27:36;;;;;;;4.53;3.40;;;;;;;;;;5049218;28;20488;-59
2023/09/17 08:30:11;;;;;;;6.37;3.63;;;;;;;;;;5050779;28;20476;-58
2023/09/17 08:32:39;;;;;;;3.40;2.83;;;;;;;;;;5046264;28;20453;-59
2023/09/17 08:35:07;;;;;;;4.30;3.50;;;;;;;;;;5049639;28;20465;-60
2023/09/17 08:37:35;;;;;;;6.23;3.20;;;;;;;;;;5050391;28;20445;-58
2023/09/17 08:40:09;;;;;;;4.43;3.10;;;;;;;;;;5049984;28;20468;-57
2023/09/17 08:42:37;;;;;;;5.93;3.30;;;;;;;;;;5049607;28;20853;-59
2023/09/17 08:45:05;;;;;;;3.97;3.40;;;;;;;;;;5048127;28;21038;-57
2023/09/17 08:47:33;;;;;;;5.27;3.73;;;;;;;;;;5048932;28;20496;-58
2023/09/17 08:50:00;;;;;;;5.77;3.17;;;;;;;;;;5048763;28;20845;-58
2023/09/17 08:52:28;;;;;;;3.43;2.70;;;;;;;;;;5048756;28;20506;-58
2023/09/17 08:54:56;;;;;;;5.00;4.23;;;;;;;;;;5049267;28;20497;-57
2023/09/17 08:57:25;;;;;;;4.30;3.90;;;;;;;;;;5049189;28;20930;-58
2023/09/17 08:59:56;;;;;;;7.17;3.23;;;;;;;;;;5049839;28;20476;-59
2023/09/17 09:02:26;;;;;;;3.40;2.73;;;;;;;;;;5049629;28;20509;-58
2023/09/17 09:04:54;;;;;;;4.27;3.53;;;;;;;;;;5049614;28;20493;-58
2023/09/17 09:07:22;;;;;;;5.67;3.80;;;;;;;;;;5049582;28;21068;-57
2023/09/17 09:09:50;;;;;;;5.50;3.70;;;;;;;;;;5049239;28;20447;-58
2023/09/17 09:12:18;;;;;;;4.70;3.43;;;;;;;;;;5049083;28;20461;-57
2023/09/17 09:14:46;;;;;;;4.50;4.00;;;;;;;;;;5047764;28;21020;-57
2023/09/17 09:17:14;;;;;;;5.10;3.20;;;;;;;;;;5046690;28;20445;-57
2023/09/17 09:19:42;;;;;;;6.53;3.27;;;;;;;;;;5047721;28;20459;-57
2023/09/17 09:22:09;;;;;;;4.10;3.40;;;;;;;;;;5047812;28;20473;-59
2023/09/17 09:24:43;;;;;;;4.80;3.10;;;;;;;;;;5048340;28;20961;-57
2023/09/17 09:27:11;;;;;;;3.70;3.00;;;;;;;;;;5049051;28;20445;-59
2023/09/17 09:29:42;;;;;;;5.90;3.40;;;;;;;;;;5048906;28;20789;-58
2023/09/17 09:32:11;;;;;;;3.90;3.30;;;;;;;;;;5047187;28;20528;-57
2023/09/17 09:34:39;;;;;;;5.00;3.27;;;;;;;;;;5049060;28;20493;-59
2023/09/17 09:37:06;;;;;;;3.20;2.80;;;;;;;;;;5048190;28;21033;-58
2023/09/17 09:39:35;;;;;;;3.50;2.73;;;;;;;;;;5047971;28;20441;-59
2023/09/17 09:42:02;;;;;;;4.03;2.83;;;;;;;;;;5048004;28;20848;-59
2023/09/17 09:47:03;;;;;;;4.37;3.13;;;;;;;;;;5024846;28;20894;-57
2023/09/17 09:49:40;;;;;;;3.17;2.73;;;;;;;;;;5027260;28;20441;-57
2023/09/17 09:52:07;;;;;;;4.20;2.90;;;;;;;;;;5027619;28;20520;-57
2023/09/17 09:54:35;;;;;;;4.37;2.83;;;;;;;;;;5028067;28;20471;-57
2023/09/17 09:57:03;;;;;;;5.20;3.00;;;;;;;;;;5027545;28;20452;-57
2023/09/17 09:59:30;;;;;;;3.33;2.57;;;;;;;;;;5028621;28;20474;-56
2023/09/17 10:01:58;;;;;;;4.27;3.50;;;;;;;;;;5027585;28;20514;-57
2023/09/17 10:04:26;;;;;;;3.50;2.93;;;;;;;;;;5028723;28;20542;-57
2023/09/17 10:06:55;;;;;;;7.50;3.23;;;;;;;;;;5027946;28;20439;-57
2023/09/17 10:09:23;;;;;;;3.77;2.67;;;;;;;;;;5028281;28;20832;-57
2023/09/17 10:11:51;;;;;;;3.47;2.57;;;;;;;;;;5028258;28;20470;-57
2023/09/17 10:14:21;;;;;;;3.30;2.80;;;;;;;;;;5027610;28;20474;-57
2023/09/17 10:16:50;;;;;;;3.60;2.67;;;;;;;;;;5027895;28;20735;-57
2023/09/17 10:19:20;;;;;;;3.20;2.67;;;;;;;;;;5028440;28;20536;-57
2023/09/17 10:21:48;;;;;;;3.67;2.63;;;;;;;;;;5028475;28;20445;-57
2023/09/17 10:24:17;;;;;;;3.80;3.00;;;;;;;;;;5027514;28;20450;-56
2023/09/17 10:26:45;;;;;;;3.30;2.40;;;;;;;;;;5026918;28;20882;-57
2023/09/17 10:29:13;;;;;;;3.67;2.97;;;;;;;;;;5026918;28;20916;-56
2023/09/17 10:31:41;;;;;;;3.50;2.77;;;;;;;;;;5023436;28;20450;-56
2023/09/17 10:34:10;;;;;;;3.50;3.20;;;;;;;;;;5026959;28;20462;-57
2023/09/17 10:36:40;;;;;;;3.97;2.70;;;;;;;;;;5027319;28;21212;-57
2023/09/17 10:39:09;;;;;;;3.60;2.90;;;;;;;;;;5027416;28;20526;-57
2023/09/17 10:41:39;;;;;;;4.47;2.60;;;;;;;;;;5028363;28;20454;-57
2023/09/17 10:44:08;;;;;;;4.20;2.57;;;;;;;;;;5027392;28;20538;-58
2023/09/17 10:46:36;;;;;;;2.93;2.47;;;;;;;;;;5026791;28;20524;-58
2023/09/17 10:49:04;;;;;;;3.40;2.63;;;;;;;;;;5025838;28;20520;-57
2023/09/17 10:51:31;;;;;;;3.57;2.43;;;;;;;;;;5027112;28;20434;-57
2023/09/17 10:53:59;;;;;;;3.43;2.30;;;;;;;;;;5026884;28;20470;-57
2023/09/17 10:56:27;;;;;;;4.47;3.00;;;;;;;;;;5027097;28;20454;-58
2023/09/17 10:58:55;;;;;;;4.20;2.53;;;;;;;;;;5026862;28;20470;-57
2023/09/17 11:01:25;;;;;;;3.53;3.00;;;;;;;;;;5028146;28;20504;-56
2023/09/17 11:03:55;;;;;;;3.57;2.47;;;;;;;;;;5029613;28;20564;-58
2023/09/17 11:06:24;;;;;;;4.33;3.07;;;;;;;;;;5029990;28;20470;-56
2023/09/17 11:08:53;;;;;;;4.07;3.50;;;;;;;;;;5028820;28;20541;-57
2023/09/17 11:11:23;;;;;;;2.33;2.03;;;;;;;;;;5029582;28;20499;-58
2023/09/17 11:13:51;;;;;;;3.90;3.00;;;;;;;;;;5030669;28;20517;-57
2023/09/17 11:16:20;;;;;;;4.13;2.20;;;;;;;;;;5029685;28;20536;-56
2023/09/17 11:19:04;;;;;;;3.93;2.73;;;;;;;;;;5030188;28;20442;-56
2023/09/17 11:21:31;;;;;;;4.53;2.80;;;;;;;;;;5030147;28;20466;-56
2023/09/17 11:23:58;;;;;;;3.80;3.10;;;;;;;;;;5029700;28;20486;-56
2023/09/17 11:26:27;;;;;;;5.50;2.60;;;;;;;;;;5029886;28;20462;-56
2023/09/17 11:28:56;;;;;;;2.77;2.37;;;;;;;;;;5027652;28;20675;-56
2023/09/17 11:31:26;;;;;;;3.57;2.67;;;;;;;;;;5029118;28;20529;-57
2023/09/17 11:33:54;;;;;;;3.67;2.60;;;;;;;;;;5027560;28;20466;-56
2023/09/17 11:36:21;;;;;;;3.10;2.60;;;;;;;;;;5028487;28;20750;-57
2023/09/17 11:38:50;;;;;;;4.87;2.80;;;;;;;;;;5028647;28;20524;-55
2023/09/17 11:41:18;;;;;;;5.63;2.83;;;;;;;;;;5029348;28;20685;-57
2023/09/17 11:43:48;;;;;;;3.20;2.50;;;;;;;;;;5029316;28;20573;-56
2023/09/17 11:46:16;;;;;;;2.90;2.40;;;;;;;;;;5029415;28;20559;-56
2023/09/17 11:48:45;;;;;;;3.17;2.40;;;;;;;;;;5029245;28;20477;-57
2023/09/17 11:51:19;;;;;;;3.73;2.27;;;;;;;;;;5029649;28;20438;-56
2023/09/17 11:53:50;;;;;;;3.20;2.20;;;;;;;;;;5030393;28;20446;-56
2023/09/17 11:56:17;;;;;;;3.07;2.37;;;;;;;;;;5029246;28;20537;-55
2023/09/17 11:58:45;;;;;;;3.43;2.33;;;;;;;;;;5028340;28;20477;-56
2023/09/17 12:01:12;;;;;;;5.00;3.07;;;;;;;;;;5026419;28;20496;-57
2023/09/17 12:03:39;;;;;;;4.80;2.20;;;;;;;;;;5030162;28;20540;-56
2023/09/17 12:06:08;;;;;;;4.20;2.30;;;;;;;;;;5033697;28;20847;-57
2023/09/17 12:08:36;;;;;;;3.90;2.60;;;;;;;;;;5033760;28;20478;-58
2023/09/17 12:11:11;;;;;;;3.03;2.53;;;;;;;;;;5032326;28;20442;-56
2023/09/17 12:13:39;;;;;;;4.10;2.70;;;;;;;;;;5032793;28;20503;-57
2023/09/17 12:16:06;;;;;;;3.03;2.40;;;;;;;;;;5032771;28;20899;-57
2023/09/17 12:18:33;;;;;;;3.53;2.80;;;;;;;;;;5033833;28;20442;-57
2023/09/17 12:21:02;;;;;;;4.00;2.40;;;;;;;;;;5033713;28;20833;-57
2023/09/17 12:23:54;;;;;;;4.53;3.00;;;;;;;;;;5033979;28;20478;-56
2023/09/17 12:26:34;;;;;;;3.77;2.50;;;;;;;;;;5033654;28;20473;-56
2023/09/17 12:29:01;;;;;;;5.47;2.77;;;;;;;;;;5034074;28;20472;-57
2023/09/17 12:31:29;;;;;;;3.40;2.23;;;;;;;;;;5033935;28;20923;-56
2023/09/17 12:33:57;;;;;;;3.30;2.80;;;;;;;;;;5032544;28;20833;-59
2023/09/17 12:36:24;;;;;;;3.03;2.43;;;;;;;;;;5032460;28;20885;-57
2023/09/17 12:38:53;;;;;;;4.00;2.70;;;;;;;;;;5032433;28;20473;-57
2023/09/17 12:41:20;;;;;;;5.30;2.40;;;;;;;;;;5032765;28;20949;-57
2023/09/17 12:43:47;;;;;;;4.60;3.20;;;;;;;;;;5032258;28;20533;-56
2023/09/17 12:46:15;;;;;;;3.23;2.23;;;;;;;;;;5032448;28;20508;-56
2023/09/17 12:48:42;;;;;;;3.50;2.30;;;;;;;;;;5033339;28;20446;-56
2023/09/17 12:51:09;;;;;;;3.07;2.50;;;;;;;;;;5033101;28;20503;-56
2023/09/17 12:53:37;;;;;;;3.63;2.70;;;;;;;;;;5033089;28;20507;-55
2023/09/17 12:56:06;;;;;;;2.83;2.20;;;;;;;;;;5032719;28;20519;-56
2023/09/17 12:58:33;;;;;;;5.00;2.97;;;;;;;;;;5033142;28;20518;-56
2023/09/17 13:01:11;;;;;;;3.37;2.50;;;;;;;;;;5033169;28;20441;-58
2023/09/17 13:03:38;;;;;;;3.17;2.70;;;;;;;;;;5033312;28;20521;-57
2023/09/17 13:06:05;;;;;;;5.30;2.70;;;;;;;;;;5032373;28;20844;-57
2023/09/17 13:08:33;;;;;;;4.30;2.93;;;;;;;;;;5033183;28;20450;-56
2023/09/17 13:11:00;;;;;;;3.40;2.80;;;;;;;;;;5033031;28;20442;-56
2023/09/17 13:13:28;;;;;;;3.30;2.70;;;;;;;;;;5032943;28;20439;-57
2023/09/17 13:15:56;;;;;;;5.10;3.07;;;;;;;;;;5032127;28;20543;-56
2023/09/17 13:18:23;;;;;;;5.23;2.97;;;;;;;;;;5032573;28;20442;-56
2023/09/17 13:20:50;;;;;;;2.87;2.50;;;;;;;;;;5032102;28;20494;-57
2023/09/17 13:23:18;;;;;;;4.80;2.90;;;;;;;;;;5032708;28;20517;-57
2023/09/17 13:25:45;;;;;;;4.40;2.90;;;;;;;;;;5031538;28;20454;-56
2023/09/17 13:28:14;;;;;;;3.60;2.70;;;;;;;;;;5029222;28;20430;-55
2023/09/17 13:30:43;;;;;;;5.00;2.97;;;;;;;;;;5031659;28;20462;-57
2023/09/17 13:33:13;;;;;;;3.17;2.73;;;;;;;;;;5032422;28;20956;-57
2023/09/17 13:35:42;;;;;;;4.93;2.63;;;;;;;;;;5031855;28;20461;-56
2023/09/17 13:38:12;;;;;;;3.50;2.73;;;;;;;;;;5031465;28;20501;-57
2023/09/17 13:40:44;;;;;;;3.90;2.90;;;;;;;;;;5031126;28;20470;-57
2023/09/17 13:43:11;;;;;;;4.50;3.50;;;;;;;;;;5029790;28;20505;-56
2023/09/17 13:45:38;;;;;;;5.00;3.27;;;;;;;;;;5031984;28;20901;-57
2023/09/17 13:48:07;;;;;;;4.40;2.97;;;;;;;;;;5030764;28;20540;-57
2023/09/17 13:50:35;;;;;;;3.47;2.40;;;;;;;;;;5030067;28;20512;-57
2023/09/17 13:53:03;;;;;;;3.93;3.30;;;;;;;;;;5031020;28;20442;-57
2023/09/17 13:55:31;;;;;;;5.83;2.77;;;;;;;;;;5031285;28;20497;-56
2023/09/17 13:57:58;;;;;;;3.40;2.90;;;;;;;;;;5030914;28;20521;-57
2023/09/17 14:00:26;;;;;;;5.07;3.13;;;;;;;;;;5031488;28;20472;-56
2023/09/17 14:02:54;;;;;;;3.93;3.30;;;;;;;;;;5030822;28;20470;-56
2023/09/17 14:05:23;;;;;;;3.90;2.83;;;;;;;;;;5030908;28;20952;-56
2023/09/17 14:07:50;;;;;;;6.17;3.27;;;;;;;;;;5031069;28;20550;-56
2023/09/17 14:10:17;;;;;;;4.60;3.30;;;;;;;;;;5031323;28;21100;-56
2023/09/17 14:12:44;;;;;;;5.20;2.73;;;;;;;;;;5031363;28;20528;-57
2023/09/17 14:15:12;;;;;;;3.37;2.70;;;;;;;;;;5031719;28;20490;-56
2023/09/17 14:17:39;;;;;;;4.50;3.40;;;;;;;;;;5031661;28;20442;-57
2023/09/17 14:20:07;;;;;;;3.97;2.63;;;;;;;;;;5031478;28;20478;-57
2023/09/17 14:22:35;;;;;;;3.80;2.57;;;;;;;;;;5031840;28;20500;-56
2023/09/17 14:25:04;;;;;;;3.20;2.87;;;;;;;;;;5031400;28;20586;-56
2023/09/17 14:27:31;;;;;;;5.20;3.00;;;;;;;;;;5030756;28;20449;-57
2023/09/17 14:30:00;;;;;;;4.73;2.70;;;;;;;;;;5028431;28;20485;-58
2023/09/17 14:32:27;;;;;;;3.93;3.03;;;;;;;;;;5029103;28;20891;-57
2023/09/17 14:34:55;;;;;;;4.47;3.30;;;;;;;;;;5029190;28;20462;-57
2023/09/17 14:37:24;;;;;;;4.67;2.63;;;;;;;;;;5028799;28;20896;-57
2023/09/17 14:39:52;;;;;;;4.70;3.03;;;;;;;;;;5027250;28;20456;-56
2023/09/17 14:42:21;;;;;;;4.20;3.07;;;;;;;;;;5028014;28;20516;-56
2023/09/17 14:44:48;;;;;;;3.30;2.70;;;;;;;;;;5030565;28;20485;-56
2023/09/17 14:47:15;;;;;;;3.67;3.27;;;;;;;;;;5031039;28;20438;-56
2023/09/17 14:49:43;;;;;;;3.43;2.93;;;;;;;;;;5030896;28;20446;-56
2023/09/17 14:52:10;;;;;;;4.10;3.40;;;;;;;;;;5030950;28;20478;-57